createdAt,value
2017-08-10T00:00:07.619Z,62.80
2017-08-10T00:02:35.076Z,62.90
2017-08-10T00:05:02.513Z,63.00
2017-08-10T00:07:29.955Z,63.00
2017-08-10T00:09:57.406Z,62.70
2017-08-10T00:12:24.860Z,63.20
2017-08-10T00:14:52.295Z,63.70
2017-08-10T00:17:19.724Z,64.60
2017-08-10T00:19:47.173Z,64.70
2017-08-10T00:22:14.661Z,64.70
2017-08-10T00:24:42.210Z,65.20
2017-08-10T00:27:09.681Z,65.20
2017-08-10T00:29:37.116Z,66.20
2017-08-10T00:32:04.567Z,65.80
2017-08-10T00:34:32.025Z,65.80
2017-08-10T00:36:59.466Z,66.10
2017-08-10T00:39:27.009Z,65.70
2017-08-10T00:41:54.444Z,65.70
2017-08-10T00:44:21.874Z,65.00
2017-08-10T00:46:49.321Z,65.00
2017-08-10T00:49:16.749Z,65.00
2017-08-10T00:51:44.190Z,64.70
2017-08-10T00:54:11.636Z,64.30
2017-08-10T00:56:39.082Z,64.40
2017-08-10T00:59:06.544Z,64.70
2017-08-10T01:01:33.995Z,64.80
2017-08-10T01:04:01.452Z,64.90
2017-08-10T01:06:29.653Z,64.60
2017-08-10T01:08:57.133Z,64.60
2017-08-10T01:11:24.563Z,64.60
2017-08-10T01:13:52.016Z,64.50
2017-08-10T01:16:19.506Z,64.50
2017-08-10T01:18:46.944Z,64.60
2017-08-10T01:21:14.511Z,64.90
2017-08-10T01:23:42.745Z,65.10
2017-08-10T01:26:10.177Z,65.00
2017-08-10T01:28:37.696Z,64.60
2017-08-10T01:31:05.177Z,64.60
2017-08-10T01:33:32.609Z,64.50
2017-08-10T01:36:00.816Z,64.60
2017-08-10T01:38:28.263Z,64.50
2017-08-10T01:40:55.695Z,65.30
2017-08-10T01:43:23.220Z,63.90
2017-08-10T01:45:50.689Z,65.30
2017-08-10T01:48:18.145Z,64.50
2017-08-10T01:50:46.348Z,64.60
2017-08-10T01:53:13.784Z,64.40
2017-08-10T01:55:41.234Z,64.50
2017-08-10T01:58:08.685Z,64.80
2017-08-10T02:00:36.158Z,64.30
2017-08-10T02:03:03.604Z,64.60
2017-08-10T02:05:31.096Z,64.10
2017-08-10T02:07:58.536Z,64.30
2017-08-10T02:10:25.990Z,64.40
2017-08-10T02:12:53.445Z,64.60
2017-08-10T02:15:20.900Z,64.60
2017-08-10T02:17:49.147Z,64.50
2017-08-10T02:20:17.432Z,65.00
2017-08-10T02:22:45.674Z,65.70
2017-08-10T02:25:13.107Z,64.90
2017-08-10T02:27:40.549Z,64.70
2017-08-10T02:30:08.005Z,64.90
2017-08-10T02:32:36.273Z,64.90
2017-08-10T02:35:03.781Z,64.90
2017-08-10T02:37:31.207Z,65.20
2017-08-10T02:39:58.653Z,66.20
2017-08-10T02:42:26.095Z,67.70
2017-08-10T02:44:53.539Z,67.60
2017-08-10T02:47:21.064Z,67.80
2017-08-10T02:49:48.521Z,68.10
2017-08-10T02:52:15.954Z,68.40
2017-08-10T02:54:43.410Z,68.10
2017-08-10T02:57:10.864Z,68.10
2017-08-10T02:59:38.299Z,69.50
2017-08-10T03:02:05.738Z,69.60
2017-08-10T03:04:33.164Z,69.30
2017-08-10T03:07:00.673Z,69.20
2017-08-10T03:09:28.104Z,68.90
2017-08-10T03:11:55.555Z,68.80
2017-08-10T03:14:23.040Z,69.30
2017-08-10T03:16:50.590Z,68.90
2017-08-10T03:19:18.113Z,69.70
2017-08-10T03:21:45.656Z,69.10
2017-08-10T03:24:13.097Z,69.60
2017-08-10T03:26:40.537Z,68.10
2017-08-10T03:29:07.981Z,68.80
2017-08-10T03:31:35.428Z,69.50
2017-08-10T03:34:03.305Z,69.70
2017-08-10T03:36:31.563Z,69.00
2017-08-10T03:38:59.045Z,69.00
2017-08-10T03:41:27.248Z,68.90
2017-08-10T03:43:54.716Z,68.90
2017-08-10T03:46:23.941Z,68.40
2017-08-10T03:48:51.452Z,68.10
2017-08-10T03:51:19.656Z,68.30
2017-08-10T03:53:47.867Z,68.40
2017-08-10T03:56:15.341Z,68.40
2017-08-10T03:58:42.797Z,68.80
2017-08-10T04:01:11.057Z,68.40
2017-08-10T04:03:39.314Z,68.50
2017-08-10T04:06:06.843Z,68.40
2017-08-10T04:08:34.440Z,67.10
2017-08-10T04:11:01.935Z,68.40
2017-08-10T04:13:29.385Z,68.10
2017-08-10T04:15:56.816Z,68.50
2017-08-10T04:18:24.260Z,67.90
2017-08-10T04:20:51.687Z,68.60
2017-08-10T04:23:19.913Z,68.50
2017-08-10T04:25:47.362Z,68.40
2017-08-10T04:28:15.621Z,68.20
2017-08-10T04:30:43.060Z,68.20
2017-08-10T04:33:10.569Z,68.00
2017-08-10T04:35:38.009Z,68.20
2017-08-10T04:38:05.492Z,67.80
2017-08-10T04:40:32.940Z,68.20
2017-08-10T04:43:00.402Z,67.00
2017-08-10T04:45:27.954Z,67.00
2017-08-10T04:47:55.407Z,67.70
2017-08-10T04:50:22.858Z,67.40
2017-08-10T04:52:50.290Z,67.90
2017-08-10T04:55:17.856Z,68.00
2017-08-10T04:57:46.078Z,67.40
2017-08-10T05:00:13.728Z,67.30
2017-08-10T05:02:41.184Z,67.10
2017-08-10T05:05:08.641Z,67.30
2017-08-10T05:07:36.844Z,67.30
2017-08-10T05:10:04.433Z,67.30
2017-08-10T05:12:31.992Z,67.40
2017-08-10T05:15:00.307Z,66.60
2017-08-10T05:17:27.756Z,66.60
2017-08-10T05:19:55.215Z,66.40
2017-08-10T05:22:22.681Z,66.80
2017-08-10T05:24:50.161Z,67.10
2017-08-10T05:27:17.628Z,67.10
2017-08-10T05:29:45.068Z,67.10
2017-08-10T05:32:12.517Z,67.10
2017-08-10T05:34:39.960Z,67.10
2017-08-10T05:37:08.559Z,66.70
2017-08-10T05:39:36.140Z,66.60
2017-08-10T05:42:03.705Z,66.30
2017-08-10T05:44:31.152Z,66.60
2017-08-10T05:46:58.595Z,66.40
2017-08-10T05:49:26.032Z,66.30
2017-08-10T05:51:53.484Z,66.30
2017-08-10T05:54:20.983Z,65.90
2017-08-10T05:56:49.222Z,66.10
2017-08-10T05:59:16.668Z,66.10
2017-08-10T06:01:44.120Z,66.00
2017-08-10T06:04:11.612Z,66.10
2017-08-10T06:06:39.099Z,66.50
2017-08-10T06:09:07.302Z,66.50
2017-08-10T06:11:34.800Z,66.50
2017-08-10T06:14:02.984Z,66.20
2017-08-10T06:16:30.430Z,66.10
2017-08-10T06:18:57.889Z,65.40
2017-08-10T06:21:25.328Z,65.60
2017-08-10T06:23:52.806Z,65.90
2017-08-10T06:26:21.056Z,64.50
2017-08-10T06:28:48.525Z,63.70
2017-08-10T06:31:15.974Z,63.50
2017-08-10T06:33:43.498Z,62.90
2017-08-10T06:36:10.961Z,62.50
2017-08-10T06:38:38.408Z,62.90
2017-08-10T06:41:06.626Z,62.10
2017-08-10T06:43:34.122Z,62.10
2017-08-10T06:46:01.584Z,62.30
2017-08-10T06:48:29.036Z,62.60
2017-08-10T06:50:56.482Z,62.70
2017-08-10T06:53:23.935Z,62.20
2017-08-10T06:55:51.385Z,62.50
2017-08-10T06:58:18.821Z,61.80
2017-08-10T07:00:46.322Z,61.60
2017-08-10T07:03:14.548Z,61.20
2017-08-10T07:05:42.047Z,61.20
2017-08-10T07:08:09.529Z,61.00
2017-08-10T07:10:37.036Z,61.20
2017-08-10T07:13:04.489Z,60.70
2017-08-10T07:15:31.954Z,60.40
2017-08-10T07:17:59.560Z,60.60
2017-08-10T07:20:27.764Z,62.00
2017-08-10T07:22:55.208Z,61.80
2017-08-10T07:25:22.685Z,62.30
2017-08-10T07:27:50.139Z,62.60
2017-08-10T07:30:18.382Z,62.80
2017-08-10T07:32:46.589Z,63.20
2017-08-10T07:35:14.053Z,63.00
2017-08-10T07:37:41.500Z,63.40
2017-08-10T07:40:08.985Z,63.30
2017-08-10T07:42:36.437Z,62.80
2017-08-10T07:45:03.889Z,63.30
2017-08-10T07:47:32.092Z,63.30
2017-08-10T07:49:59.572Z,63.20
2017-08-10T07:52:27.129Z,63.80
2017-08-10T07:54:54.585Z,63.20
2017-08-10T07:57:22.141Z,63.40
2017-08-10T07:59:50.357Z,61.90
2017-08-10T08:02:17.831Z,61.80
2017-08-10T08:04:45.284Z,61.30
2017-08-10T08:07:13.517Z,61.10
2017-08-10T08:09:40.970Z,61.10
2017-08-10T08:12:08.418Z,59.90
2017-08-10T08:14:36.665Z,60.20
2017-08-10T08:17:04.278Z,60.20
2017-08-10T08:19:31.740Z,59.90
2017-08-10T08:21:59.209Z,60.00
2017-08-10T08:24:26.737Z,59.30
2017-08-10T08:26:54.186Z,59.50
2017-08-10T08:29:21.743Z,59.20
2017-08-10T08:31:49.186Z,59.30
2017-08-10T08:34:16.641Z,58.70
2017-08-10T08:36:44.870Z,58.10
2017-08-10T08:39:12.355Z,57.90
2017-08-10T08:41:40.631Z,57.40
2017-08-10T08:44:08.075Z,57.40
2017-08-10T08:46:35.551Z,57.60
2017-08-10T08:49:03.010Z,57.60
2017-08-10T08:51:30.473Z,56.80
2017-08-10T08:53:58.705Z,57.10
2017-08-10T08:56:26.144Z,57.00
2017-08-10T08:58:53.613Z,56.30
2017-08-10T09:01:21.125Z,56.00
2017-08-10T09:03:48.667Z,55.60
2017-08-10T09:06:16.113Z,55.80
2017-08-10T09:08:43.573Z,55.80
2017-08-10T09:11:11.073Z,55.30
2017-08-10T09:13:38.572Z,55.40
2017-08-10T09:16:06.821Z,55.10
2017-08-10T09:18:34.285Z,55.00
2017-08-10T09:21:02.539Z,57.00
2017-08-10T09:23:29.989Z,56.90
2017-08-10T09:25:58.216Z,56.80
2017-08-10T09:28:25.691Z,56.80
2017-08-10T09:30:53.180Z,56.40
2017-08-10T09:33:20.656Z,56.60
2017-08-10T09:35:48.096Z,56.60
2017-08-10T09:38:15.556Z,56.50
2017-08-10T09:40:43.103Z,56.10
2017-08-10T09:43:11.330Z,55.00
2017-08-10T09:45:38.811Z,55.40
2017-08-10T09:48:07.026Z,56.00
2017-08-10T09:50:34.510Z,56.00
2017-08-10T09:53:01.950Z,56.40
2017-08-10T09:55:30.209Z,56.70
2017-08-10T09:57:58.546Z,57.20
2017-08-10T10:00:26.005Z,57.20
2017-08-10T10:02:54.224Z,58.00
2017-08-10T10:05:21.670Z,58.00
2017-08-10T10:07:49.132Z,57.50
2017-08-10T10:10:17.357Z,57.30
2017-08-10T10:12:44.844Z,57.20
2017-08-10T10:15:12.391Z,56.70
2017-08-10T10:17:39.865Z,57.00
2017-08-10T10:20:08.337Z,57.50
2017-08-10T10:22:36.534Z,57.20
2017-08-10T10:25:03.970Z,57.20
2017-08-10T10:27:31.489Z,57.30
2017-08-10T10:29:59.106Z,57.20
2017-08-10T10:32:27.328Z,58.40
2017-08-10T10:34:54.751Z,58.30
2017-08-10T10:37:22.257Z,58.50
2017-08-10T10:39:50.519Z,58.20
2017-08-10T10:42:18.761Z,58.70
2017-08-10T10:44:46.211Z,58.20
2017-08-10T10:47:13.781Z,58.60
2017-08-10T10:49:42.085Z,58.50
2017-08-10T10:52:09.526Z,58.40
2017-08-10T10:54:36.991Z,58.40
2017-08-10T10:57:04.508Z,58.30
2017-08-10T10:59:32.870Z,58.70
2017-08-10T11:02:00.403Z,58.70
2017-08-10T11:04:27.852Z,59.10
2017-08-10T11:06:55.344Z,59.00
2017-08-10T11:09:22.817Z,58.80
2017-08-10T11:11:51.021Z,59.20
2017-08-10T11:14:18.455Z,59.10
2017-08-10T11:16:45.904Z,58.40
2017-08-10T11:19:13.359Z,58.80
2017-08-10T11:21:40.814Z,58.70
2017-08-10T11:24:08.311Z,59.00
2017-08-10T11:26:35.747Z,58.80
2017-08-10T11:29:03.208Z,59.20
2017-08-10T11:31:31.441Z,59.80
2017-08-10T11:33:58.956Z,59.80
2017-08-10T11:36:26.445Z,60.20
2017-08-10T11:38:54.777Z,60.70
2017-08-10T11:41:22.225Z,60.50
2017-08-10T11:43:49.692Z,60.00
2017-08-10T11:46:17.198Z,59.90
2017-08-10T11:48:44.601Z,61.10
2017-08-10T11:51:12.085Z,61.10
2017-08-10T11:53:39.614Z,61.80
2017-08-10T11:56:07.076Z,61.70
2017-08-10T11:58:35.296Z,62.70
2017-08-10T12:01:02.757Z,62.60
2017-08-10T12:03:30.212Z,62.90
2017-08-10T12:05:58.463Z,61.60
2017-08-10T12:08:25.940Z,61.60
2017-08-10T12:10:53.412Z,62.20
2017-08-10T12:13:20.992Z,62.30
2017-08-10T12:15:48.461Z,62.60
2017-08-10T12:18:15.933Z,63.20
2017-08-10T12:20:43.424Z,63.50
2017-08-10T12:23:11.793Z,63.60
2017-08-10T12:25:39.250Z,64.00
2017-08-10T12:28:07.511Z,64.80
2017-08-10T12:30:35.889Z,65.50
2017-08-10T12:33:03.342Z,65.40
2017-08-10T12:35:30.789Z,65.70
2017-08-10T12:37:59.417Z,65.40
2017-08-10T12:40:26.873Z,65.30
2017-08-10T12:42:55.202Z,65.40
2017-08-10T12:45:22.654Z,65.40
2017-08-10T12:47:50.148Z,65.90
2017-08-10T12:50:17.590Z,66.70
2017-08-10T12:52:45.079Z,66.80
2017-08-10T12:55:12.496Z,67.20
2017-08-10T12:57:39.977Z,68.40
2017-08-10T13:00:07.504Z,69.40
2017-08-10T13:02:34.996Z,69.40
2017-08-10T13:05:02.444Z,70.30
2017-08-10T13:07:29.892Z,71.40
2017-08-10T13:09:57.447Z,72.00
2017-08-10T13:12:25.171Z,72.30
2017-08-10T13:14:53.401Z,73.20
2017-08-10T13:17:20.851Z,73.10
2017-08-10T13:19:48.526Z,73.60
2017-08-10T13:22:16.730Z,73.90
2017-08-10T13:24:44.201Z,73.90
2017-08-10T13:27:11.762Z,74.50
2017-08-10T13:29:39.298Z,74.80
2017-08-10T13:32:06.739Z,77.00
2017-08-10T13:34:34.989Z,76.50
2017-08-10T13:37:02.446Z,75.80
2017-08-10T13:39:30.713Z,76.40
2017-08-10T13:41:58.921Z,76.20
2017-08-10T13:44:26.373Z,76.20
2017-08-10T13:46:53.833Z,76.80
2017-08-10T13:49:21.394Z,75.30
2017-08-10T13:51:49.614Z,76.30
2017-08-10T13:54:17.103Z,76.30
2017-08-10T13:56:45.302Z,77.10
2017-08-10T13:59:12.763Z,77.70
2017-08-10T14:01:40.216Z,77.30
2017-08-10T14:04:07.674Z,77.00
2017-08-10T14:06:35.117Z,76.40
2017-08-10T14:09:02.578Z,77.60
2017-08-10T14:11:30.793Z,76.20
2017-08-10T14:13:58.217Z,76.20
2017-08-10T14:16:25.665Z,77.80
2017-08-10T14:18:53.166Z,77.50
2017-08-10T14:21:21.507Z,76.80
2017-08-10T14:23:49.077Z,76.70
2017-08-10T14:26:17.298Z,76.80
2017-08-10T14:28:44.756Z,75.80
2017-08-10T14:31:12.197Z,78.20
2017-08-10T14:33:39.679Z,78.00
2017-08-10T14:36:07.145Z,76.30
2017-08-10T14:38:34.687Z,75.90
2017-08-10T14:41:02.198Z,75.60
2017-08-10T14:43:30.457Z,76.00
2017-08-10T14:45:58.712Z,76.50
2017-08-10T14:48:26.145Z,76.40
2017-08-10T14:50:53.595Z,76.10
2017-08-10T14:53:21.089Z,75.30
2017-08-10T14:55:48.550Z,76.50
2017-08-10T14:58:16.764Z,77.80
2017-08-10T15:00:44.229Z,77.80
2017-08-10T15:03:11.686Z,77.40
2017-08-10T15:05:39.909Z,76.00
2017-08-10T15:08:07.377Z,76.00
2017-08-10T15:10:34.823Z,76.90
2017-08-10T15:13:02.284Z,74.40
2017-08-10T15:15:29.736Z,74.80
2017-08-10T15:17:57.204Z,74.70
2017-08-10T15:20:24.680Z,76.00
2017-08-10T15:22:52.121Z,75.20
2017-08-10T15:25:19.831Z,74.50
2017-08-10T15:27:47.265Z,75.60
2017-08-10T15:30:14.779Z,74.40
2017-08-10T15:32:42.229Z,74.00
2017-08-10T15:35:10.465Z,75.40
2017-08-10T15:37:37.920Z,76.00
2017-08-10T15:40:06.134Z,75.20
2017-08-10T15:42:33.590Z,74.40
2017-08-10T15:45:01.044Z,74.10
2017-08-10T15:47:28.518Z,73.10
2017-08-10T15:49:56.760Z,73.60
2017-08-10T15:52:24.258Z,73.60
2017-08-10T15:54:51.696Z,73.10
2017-08-10T15:57:19.154Z,74.10
2017-08-10T15:59:46.605Z,73.60
2017-08-10T16:02:14.039Z,73.90
2017-08-10T16:04:45.425Z,73.40
2017-08-10T16:07:12.870Z,74.90
2017-08-10T16:09:40.349Z,71.90
2017-08-10T16:12:07.920Z,73.10
2017-08-10T16:14:35.461Z,73.10
2017-08-10T16:17:02.960Z,73.70
2017-08-10T16:19:30.387Z,73.30
2017-08-10T16:21:57.837Z,72.30
2017-08-10T16:24:25.400Z,72.80
2017-08-10T16:26:52.843Z,72.10
2017-08-10T16:29:20.377Z,72.10
2017-08-10T16:31:47.830Z,72.80
2017-08-10T16:34:15.272Z,72.50
2017-08-10T16:36:42.701Z,72.20
2017-08-10T16:39:10.169Z,72.70
2017-08-10T16:41:37.649Z,72.40
2017-08-10T16:44:05.114Z,72.40
2017-08-10T16:46:33.318Z,72.30
2017-08-10T16:49:00.757Z,72.30
2017-08-10T16:51:28.231Z,72.90
2017-08-10T16:53:55.672Z,73.60
2017-08-10T16:56:23.129Z,73.90
2017-08-10T16:58:50.578Z,74.40
2017-08-10T17:01:18.060Z,73.70
2017-08-10T17:03:45.514Z,73.30
2017-08-10T17:06:13.734Z,71.50
2017-08-10T17:08:41.180Z,71.50
2017-08-10T17:11:08.675Z,71.70
2017-08-10T17:13:36.196Z,72.00
2017-08-10T17:16:03.633Z,73.20
2017-08-10T17:18:31.092Z,74.60
2017-08-10T17:20:58.556Z,73.10
2017-08-10T17:23:26.041Z,73.00
2017-08-10T17:25:53.477Z,72.80
2017-08-10T17:28:20.918Z,72.50
2017-08-10T17:30:48.386Z,73.00
2017-08-10T17:33:15.828Z,74.20
2017-08-10T17:35:43.369Z,76.50
2017-08-10T17:38:10.831Z,73.20
2017-08-10T17:40:38.288Z,75.10
2017-08-10T17:43:06.521Z,75.50
2017-08-10T17:45:33.970Z,75.50
2017-08-10T17:48:01.627Z,76.60
2017-08-10T17:50:29.153Z,76.90
2017-08-10T17:52:56.651Z,77.30
2017-08-10T17:55:24.179Z,77.30
2017-08-10T17:57:51.637Z,76.10
2017-08-10T18:00:19.872Z,74.80
2017-08-10T18:02:47.331Z,74.90
2017-08-10T18:05:15.806Z,75.90
2017-08-10T18:07:43.851Z,76.30
2017-08-10T18:10:11.377Z,76.30
2017-08-10T18:12:38.820Z,76.70
2017-08-10T18:15:06.444Z,76.00
2017-08-10T18:17:33.925Z,74.00
2017-08-10T18:20:01.364Z,76.60
2017-08-10T18:22:28.828Z,75.00
2017-08-10T18:24:56.281Z,76.10
2017-08-10T18:27:23.831Z,74.70
2017-08-10T18:29:51.438Z,75.10
2017-08-10T18:32:18.888Z,75.20
2017-08-10T18:34:47.172Z,76.70
2017-08-10T18:37:15.408Z,76.20
2017-08-10T18:39:42.875Z,76.20
2017-08-10T18:42:11.132Z,75.50
2017-08-10T18:44:39.494Z,75.70
2017-08-10T18:47:07.711Z,77.30
2017-08-10T18:49:35.176Z,77.40
2017-08-10T18:52:02.624Z,77.30
2017-08-10T18:54:30.055Z,76.80
2017-08-10T18:56:57.557Z,77.00
2017-08-10T18:59:25.062Z,77.00
2017-08-10T19:01:53.267Z,77.60
2017-08-10T19:04:20.718Z,77.20
2017-08-10T19:06:48.370Z,76.80
2017-08-10T19:09:15.969Z,77.40
2017-08-10T19:11:44.836Z,77.10
2017-08-10T19:14:12.344Z,77.00
2017-08-10T19:16:39.788Z,75.60
2017-08-10T19:19:07.228Z,76.80
2017-08-10T19:21:34.698Z,77.90
2017-08-10T19:24:02.258Z,77.30
2017-08-10T19:26:30.059Z,78.80
2017-08-10T19:28:57.545Z,76.00
2017-08-10T19:31:25.014Z,74.60
2017-08-10T19:33:52.467Z,75.90
2017-08-10T19:36:19.931Z,74.80
2017-08-10T19:38:47.379Z,76.60
2017-08-10T19:41:14.829Z,77.90
2017-08-10T19:43:42.304Z,76.60
2017-08-10T19:46:10.280Z,77.20
2017-08-10T19:48:37.713Z,76.50
2017-08-10T19:51:05.996Z,76.50
2017-08-10T19:53:33.457Z,76.50
2017-08-10T19:56:00.947Z,75.60
2017-08-10T19:58:28.404Z,76.00
2017-08-10T20:00:55.836Z,74.60
2017-08-10T20:03:23.477Z,75.50
2017-08-10T20:05:50.918Z,75.60
2017-08-10T20:08:19.159Z,74.40
2017-08-10T20:10:46.587Z,74.50
2017-08-10T20:13:14.177Z,75.30
2017-08-10T20:15:42.462Z,75.30
2017-08-10T20:18:09.918Z,75.20
2017-08-10T20:20:37.361Z,75.10
2017-08-10T20:23:04.814Z,74.90
2017-08-10T20:25:32.301Z,76.10
2017-08-10T20:27:59.755Z,75.70
2017-08-10T20:30:28.041Z,75.40
2017-08-10T20:32:55.522Z,75.40
2017-08-10T20:35:23.808Z,74.50
2017-08-10T20:37:51.250Z,74.50
2017-08-10T20:40:18.685Z,75.50
2017-08-10T20:42:46.160Z,75.20
2017-08-10T20:45:13.636Z,76.50
2017-08-10T20:47:41.075Z,76.00
2017-08-10T20:50:08.532Z,74.60
2017-08-10T20:52:35.995Z,74.80
2017-08-10T20:55:03.469Z,74.80
2017-08-10T20:57:31.683Z,73.80
2017-08-10T20:59:59.131Z,73.80
2017-08-10T21:02:26.568Z,73.80
2017-08-10T21:04:54.025Z,74.40
2017-08-10T21:07:21.467Z,74.80
2017-08-10T21:09:49.113Z,74.00
2017-08-10T21:12:16.569Z,75.30
2017-08-10T21:14:44.046Z,75.50
2017-08-10T21:17:11.503Z,74.00
2017-08-10T21:19:38.938Z,73.90
2017-08-10T21:22:06.417Z,75.20
2017-08-10T21:24:33.841Z,74.50
2017-08-10T21:27:01.723Z,74.60
2017-08-10T21:29:29.160Z,74.30
2017-08-10T21:31:56.613Z,74.30
2017-08-10T21:34:24.121Z,73.30
2017-08-10T21:36:51.773Z,73.80
2017-08-10T21:39:21.201Z,73.80
2017-08-10T21:41:49.465Z,75.00
2017-08-10T21:44:16.901Z,75.00
2017-08-10T21:46:44.446Z,76.20
2017-08-10T21:49:11.890Z,75.90
2017-08-10T21:51:39.346Z,75.90
2017-08-10T21:54:07.550Z,74.20
2017-08-10T21:56:35.044Z,73.50
2017-08-10T21:59:02.595Z,75.00
2017-08-10T22:01:30.810Z,74.00
2017-08-10T22:03:58.256Z,74.00
2017-08-10T22:06:25.703Z,74.30
2017-08-10T22:08:53.145Z,74.40
2017-08-10T22:11:20.616Z,74.00
2017-08-10T22:13:48.156Z,73.20
2017-08-10T22:16:15.608Z,72.70
2017-08-10T22:18:43.095Z,73.40
2017-08-10T22:21:10.583Z,73.40
2017-08-10T22:23:38.028Z,73.00
2017-08-10T22:26:05.476Z,73.30
2017-08-10T22:28:32.945Z,72.90
2017-08-10T22:31:00.393Z,72.70
2017-08-10T22:33:27.860Z,71.70
2017-08-10T22:35:55.326Z,70.90
2017-08-10T22:38:22.781Z,72.30
2017-08-10T22:40:50.226Z,72.80
2017-08-10T22:43:17.661Z,72.60
2017-08-10T22:45:45.162Z,72.70
2017-08-10T22:48:12.609Z,72.40
2017-08-10T22:50:40.126Z,71.90
2017-08-10T22:53:08.384Z,72.50
2017-08-10T22:55:36.599Z,73.60
2017-08-10T22:58:04.071Z,73.50
2017-08-10T23:00:31.524Z,73.70
2017-08-10T23:02:58.982Z,73.30
2017-08-10T23:05:26.511Z,73.20
2017-08-10T23:07:54.864Z,72.10
2017-08-10T23:10:22.324Z,71.80
2017-08-10T23:12:50.522Z,73.40
2017-08-10T23:15:18.081Z,73.30
2017-08-10T23:17:45.548Z,72.90
2017-08-10T23:20:13.010Z,72.80
2017-08-10T23:22:41.222Z,72.00
2017-08-10T23:25:08.668Z,72.50
2017-08-10T23:27:36.136Z,72.40
2017-08-10T23:30:03.579Z,72.60
2017-08-10T23:32:31.106Z,72.70
2017-08-10T23:34:58.556Z,72.30
2017-08-10T23:37:26.005Z,73.50
2017-08-10T23:39:53.469Z,72.50
2017-08-10T23:42:20.906Z,73.10
2017-08-10T23:44:48.356Z,72.80
2017-08-10T23:47:16.779Z,72.20
2017-08-10T23:49:44.243Z,71.50
2017-08-10T23:52:11.791Z,72.00
2017-08-10T23:54:39.260Z,72.70
2017-08-10T23:57:07.482Z,73.10
2017-08-10T23:59:34.921Z,73.10
